PWSweather.com
Personal Weather Stations
Station Observations
IPORTUGA89
BarosaPT

BarosaPT

Lat: 39.754028, Lon: -8.843

Elevation: 98

Station Type: Davis Vp2

High Low Average
Temperature 79.7°F26.5°C 55.0°F12.8°C 66.5°F19.2°C
Dew Point 64.9°F18.3°C 53.4°F11.9°C 60.1°F15.6°C
Winds 14.1 mph 22.7 kmh Calm Calm 4.0 mph W6.4 kmh W
Wind Gusts 23.9 mph38.5 kmh -- 8.0 mph12.9 kmh
Humidity 96% 54% 82%
Pressure 30.25 in1024.4 mb 30.20 in1022.7 mb -
Precipitation 0.01 in0.3 mm - -
Hour Temp Dew Point Humidity Winds Wind Gusts Pressure Precip Precip Rate Daily Precip Total
12:04 AM 59.9°F15.5°C 58.1°F14.5°C 94% Calm Calm -- 30.23 in1023.7 mb 0.00 in0.0 mm 0.00 in0.0 mm 0.00 in0.0 mm
12:14 AM 59.7°F15.4°C 57.9°F14.4°C 94% Calm Calm -- 30.22 in1023.4 mb 0.00 in0.0 mm 0.00 in0.0 mm 0.00 in0.0 mm
12:24 AM 59.4°F15.2°C 57.6°F14.2°C 94% Calm Calm -- 30.22 in1023.4 mb 0.00 in0.0 mm 0.00 in0.0 mm 0.00 in0.0 mm
12:34 AM 59.2°F15.1°C 57.2°F14.0°C 93% Calm Calm -- 30.23 in1023.7 mb 0.00 in0.0 mm 0.00 in0.0 mm 0.00 in0.0 mm
12:45 AM 58.5°F14.7°C 56.7°F13.7°C 94% Calm Calm -- 30.22 in1023.4 mb 0.00 in0.0 mm 0.00 in0.0 mm 0.00 in0.0 mm
12:55 AM 58.1°F14.5°C 56.3°F13.5°C 94% Calm Calm -- 30.22 in1023.4 mb 0.00 in0.0 mm 0.00 in0.0 mm 0.00 in0.0 mm
01:05 AM 57.9°F14.4°C 56.1°F13.4°C 94% Calm Calm -- 30.22 in1023.4 mb 0.00 in0.0 mm 0.00 in0.0 mm 0.00 in0.0 mm
01:15 AM 57.9°F14.4°C 56.1°F13.4°C 94% Calm Calm -- 30.22 in1023.4 mb 0.00 in0.0 mm 0.00 in0.0 mm 0.00 in0.0 mm
01:25 AM 57.7°F14.3°C 55.9°F13.3°C 94% Calm Calm -- 30.22 in1023.4 mb 0.00 in0.0 mm 0.00 in0.0 mm 0.00 in0.0 mm
01:35 AM 57.6°F14.2°C 55.8°F13.2°C 94% Calm Calm -- 30.22 in1023.4 mb 0.00 in0.0 mm 0.00 in0.0 mm 0.00 in0.0 mm
01:45 AM 57.6°F14.2°C 55.8°F13.2°C 94% Calm Calm -- 30.22 in1023.4 mb 0.00 in0.0 mm 0.00 in0.0 mm 0.00 in0.0 mm
01:55 AM 56.8°F13.8°C 55.2°F12.9°C 94% Calm Calm -- 30.21 in1023.0 mb 0.00 in0.0 mm 0.00 in0.0 mm 0.00 in0.0 mm
02:06 AM 56.5°F13.6°C 54.9°F12.7°C 94% Calm Calm -- 30.21 in1023.0 mb 0.00 in0.0 mm 0.00 in0.0 mm 0.00 in0.0 mm
02:16 AM 55.8°F13.2°C 54.1°F12.3°C 94% Calm Calm -- 30.21 in1023.0 mb 0.00 in0.0 mm 0.00 in0.0 mm 0.00 in0.0 mm
02:26 AM 55.8°F13.2°C 54.3°F12.4°C 95% Calm Calm -- 30.21 in1023.0 mb 0.00 in0.0 mm 0.00 in0.0 mm 0.00 in0.0 mm
02:36 AM 55.4°F13.0°C 53.8°F12.1°C 94% Calm Calm -- 30.21 in1023.0 mb 0.00 in0.0 mm 0.00 in0.0 mm 0.00 in0.0 mm
02:46 AM 55.2°F12.9°C 53.8°F12.1°C 95% Calm Calm -- 30.21 in1023.0 mb 0.00 in0.0 mm 0.00 in0.0 mm 0.00 in0.0 mm
02:56 AM 55.0°F12.8°C 53.4°F11.9°C 94% Calm Calm -- 30.21 in1023.0 mb 0.00 in0.0 mm 0.00 in0.0 mm 0.00 in0.0 mm
03:06 AM 55.4°F13.0°C 54.0°F12.2°C 95% Calm Calm -- 30.21 in1023.0 mb 0.00 in0.0 mm 0.00 in0.0 mm 0.00 in0.0 mm
03:17 AM 56.5°F13.6°C 55.4°F13.0°C 96% Calm Calm -- 30.21 in1023.0 mb 0.00 in0.0 mm 0.00 in0.0 mm 0.00 in0.0 mm
03:27 AM 57.2°F14.0°C 56.1°F13.4°C 96% Calm Calm -- 30.21 in1023.0 mb 0.00 in0.0 mm 0.00 in0.0 mm 0.00 in0.0 mm
03:37 AM 57.6°F14.2°C 56.1°F13.4°C 95% Calm Calm -- 30.21 in1023.0 mb 0.00 in0.0 mm 0.00 in0.0 mm 0.00 in0.0 mm
03:47 AM 57.9°F14.4°C 56.5°F13.6°C 95% Calm Calm -- 30.21 in1023.0 mb 0.00 in0.0 mm 0.00 in0.0 mm 0.00 in0.0 mm
03:57 AM 58.1°F14.5°C 56.7°F13.7°C 95% Calm Calm -- 30.21 in1023.0 mb 0.00 in0.0 mm 0.00 in0.0 mm 0.00 in0.0 mm
04:07 AM 58.5°F14.7°C 57.4°F14.1°C 96% Calm Calm -- 30.20 in1022.7 mb 0.00 in0.0 mm 0.00 in0.0 mm 0.00 in0.0 mm
04:17 AM 58.6°F14.8°C 57.6°F14.2°C 96% Calm Calm -- 30.21 in1023.0 mb 0.00 in0.0 mm 0.00 in0.0 mm 0.00 in0.0 mm
04:28 AM 59.0°F15.0°C 57.9°F14.4°C 96% Calm Calm -- 30.21 in1023.0 mb 0.00 in0.0 mm 0.00 in0.0 mm 0.00 in0.0 mm
04:38 AM 59.2°F15.1°C 58.1°F14.5°C 96% Calm Calm -- 30.21 in1023.0 mb 0.00 in0.0 mm 0.00 in0.0 mm 0.00 in0.0 mm
04:48 AM 59.2°F15.1°C 58.1°F14.5°C 96% Calm Calm -- 30.21 in1023.0 mb 0.00 in0.0 mm 0.00 in0.0 mm 0.00 in0.0 mm
04:58 AM 59.2°F15.1°C 58.1°F14.5°C 96% Calm Calm -- 30.21 in1023.0 mb 0.00 in0.0 mm 0.00 in0.0 mm 0.00 in0.0 mm
05:08 AM 59.2°F15.1°C 58.1°F14.5°C 96% Calm Calm -- 30.21 in1023.0 mb 0.00 in0.0 mm 0.00 in0.0 mm 0.00 in0.0 mm
05:18 AM 59.2°F15.1°C 58.1°F14.5°C 96% Calm Calm -- 30.21 in1023.0 mb 0.00 in0.0 mm 0.00 in0.0 mm 0.00 in0.0 mm
05:28 AM 59.4°F15.2°C 58.3°F14.6°C 96% Calm Calm -- 30.22 in1023.4 mb 0.00 in0.0 mm 0.00 in0.0 mm 0.00 in0.0 mm
05:38 AM 59.5°F15.3°C 58.5°F14.7°C 96% Calm Calm -- 30.22 in1023.4 mb 0.00 in0.0 mm 0.00 in0.0 mm 0.00 in0.0 mm
05:48 AM 59.7°F15.4°C 58.6°F14.8°C 96% Calm Calm -- 30.22 in1023.4 mb 0.00 in0.0 mm 0.00 in0.0 mm 0.00 in0.0 mm
05:58 AM 59.7°F15.4°C 58.6°F14.8°C 96% Calm Calm -- 30.22 in1023.4 mb 0.00 in0.0 mm 0.00 in0.0 mm 0.00 in0.0 mm
06:08 AM 59.7°F15.4°C 58.6°F14.8°C 96% Calm Calm -- 30.22 in1023.4 mb 0.00 in0.0 mm 0.00 in0.0 mm 0.00 in0.0 mm
06:18 AM 59.9°F15.5°C 58.8°F14.9°C 96% Calm Calm -- 30.22 in1023.4 mb 0.00 in0.0 mm 0.00 in0.0 mm 0.01 in0.3 mm
06:29 AM 60.1°F15.6°C 59.0°F15.0°C 96% Calm Calm -- 30.22 in1023.4 mb 0.01 in0.3 mm 0.05 in1.3 mm 0.01 in0.3 mm
06:39 AM 60.3°F15.7°C 59.2°F15.1°C 96% Calm Calm 2.9 mph4.7 kmh 30.22 in1023.4 mb 0.01 in0.3 mm 0.00 in0.0 mm 0.01 in0.3 mm
06:49 AM 60.3°F15.7°C 59.2°F15.1°C 96% Calm Calm -- 30.22 in1023.4 mb 0.01 in0.3 mm 0.00 in0.0 mm 0.01 in0.3 mm
06:59 AM 60.3°F15.7°C 59.2°F15.1°C 96% 0.9 mph NNW1.4 kmh NNW 4.9 mph7.9 kmh 30.23 in1023.7 mb 0.01 in0.3 mm 0.00 in0.0 mm 0.01 in0.3 mm
07:09 AM 60.3°F15.7°C 59.2°F15.1°C 96% 0.9 mph N1.4 kmh N 4.0 mph6.4 kmh 30.23 in1023.7 mb 0.01 in0.3 mm 0.00 in0.0 mm 0.01 in0.3 mm
07:19 AM 60.3°F15.7°C 59.2°F15.1°C 96% Calm Calm 0.9 mph1.4 kmh 30.23 in1023.7 mb 0.00 in0.0 mm 0.00 in0.0 mm 0.01 in0.3 mm
07:29 AM 60.4°F15.8°C 59.4°F15.2°C 96% Calm Calm 4.0 mph6.4 kmh 30.23 in1023.7 mb 0.00 in0.0 mm 0.00 in0.0 mm 0.01 in0.3 mm
07:39 AM 60.4°F15.8°C 59.4°F15.2°C 96% Calm Calm -- 30.23 in1023.7 mb 0.00 in0.0 mm 0.00 in0.0 mm 0.01 in0.3 mm
07:50 AM 60.4°F15.8°C 59.4°F15.2°C 96% Calm Calm 2.9 mph4.7 kmh 30.23 in1023.7 mb 0.00 in0.0 mm 0.00 in0.0 mm 0.01 in0.3 mm
08:00 AM 60.6°F15.9°C 59.5°F15.3°C 96% Calm Calm -- 30.23 in1023.7 mb 0.00 in0.0 mm 0.00 in0.0 mm 0.01 in0.3 mm
08:10 AM 60.8°F16.0°C 59.7°F15.4°C 96% Calm Calm -- 30.23 in1023.7 mb 0.00 in0.0 mm 0.00 in0.0 mm 0.01 in0.3 mm
08:20 AM 61.2°F16.2°C 60.1°F15.6°C 96% Calm Calm -- 30.23 in1023.7 mb 0.00 in0.0 mm 0.00 in0.0 mm 0.01 in0.3 mm
08:30 AM 61.7°F16.5°C 60.6°F15.9°C 96% Calm Calm -- 30.23 in1023.7 mb 0.00 in0.0 mm 0.00 in0.0 mm 0.01 in0.3 mm
08:40 AM 61.9°F16.6°C 60.8°F16.0°C 96% Calm Calm -- 30.24 in1024.0 mb 0.00 in0.0 mm 0.00 in0.0 mm 0.01 in0.3 mm
08:50 AM 62.4°F16.9°C 61.3°F16.3°C 96% 0.9 mph E1.4 kmh E 4.0 mph6.4 kmh 30.23 in1023.7 mb 0.00 in0.0 mm 0.00 in0.0 mm 0.01 in0.3 mm
09:00 AM 63.9°F17.7°C 62.8°F17.1°C 96% 0.9 mph NE1.4 kmh NE 4.0 mph6.4 kmh 30.24 in1024.0 mb 0.00 in0.0 mm 0.00 in0.0 mm 0.01 in0.3 mm
09:11 AM 65.3°F18.5°C 63.9°F17.7°C 95% 2.0 mph NE3.2 kmh NE 4.0 mph6.4 kmh 30.24 in1024.0 mb 0.00 in0.0 mm 0.00 in0.0 mm 0.01 in0.3 mm
09:21 AM 66.7°F19.3°C 64.6°F18.1°C 93% 0.9 mph NNE1.4 kmh NNE 4.0 mph6.4 kmh 30.24 in1024.0 mb 0.00 in0.0 mm 0.00 in0.0 mm 0.01 in0.3 mm
09:31 AM 68.4°F20.2°C 64.9°F18.3°C 89% 2.0 mph NE3.2 kmh NE 4.0 mph6.4 kmh 30.24 in1024.0 mb 0.00 in0.0 mm 0.00 in0.0 mm 0.01 in0.3 mm
09:41 AM 69.8°F21.0°C 64.4°F18.0°C 83% 2.9 mph NE4.7 kmh NE 4.9 mph7.9 kmh 30.24 in1024.0 mb 0.00 in0.0 mm 0.00 in0.0 mm 0.01 in0.3 mm
09:51 AM 70.9°F21.6°C 64.0°F17.8°C 79% 2.0 mph E3.2 kmh E 4.9 mph7.9 kmh 30.24 in1024.0 mb 0.00 in0.0 mm 0.00 in0.0 mm 0.01 in0.3 mm
10:01 AM 72.0°F22.2°C 64.4°F18.0°C 77% 2.0 mph WNW3.2 kmh WNW 8.1 mph13.0 kmh 30.24 in1024.0 mb 0.00 in0.0 mm 0.00 in0.0 mm 0.01 in0.3 mm
10:11 AM 73.0°F22.8°C 64.2°F17.9°C 74% 4.0 mph NW6.4 kmh NW 8.9 mph14.3 kmh 30.24 in1024.0 mb 0.00 in0.0 mm 0.00 in0.0 mm 0.01 in0.3 mm
10:21 AM 73.8°F23.2°C 64.2°F17.9°C 72% 4.0 mph NNW6.4 kmh NNW 10.1 mph16.3 kmh 30.24 in1024.0 mb 0.00 in0.0 mm 0.00 in0.0 mm 0.01 in0.3 mm
10:31 AM 74.1°F23.4°C 63.7°F17.6°C 70% 4.9 mph NW7.9 kmh NW 12.1 mph19.5 kmh 30.24 in1024.0 mb 0.00 in0.0 mm 0.00 in0.0 mm 0.01 in0.3 mm
10:41 AM 75.0°F23.9°C 63.3°F17.4°C 67% 6.9 mph 11.1 kmh 11.0 mph17.7 kmh 30.24 in1024.0 mb 0.00 in0.0 mm 0.00 in0.0 mm 0.01 in0.3 mm
10:51 AM 75.7°F24.3°C 63.5°F17.5°C 66% 6.9 mph NW11.1 kmh NW 13.0 mph20.9 kmh 30.24 in1024.0 mb 0.00 in0.0 mm 0.00 in0.0 mm 0.01 in0.3 mm
11:01 AM 76.5°F24.7°C 63.0°F17.2°C 63% 6.0 mph N9.7 kmh N 13.0 mph20.9 kmh 30.24 in1024.0 mb 0.00 in0.0 mm 0.00 in0.0 mm 0.01 in0.3 mm
11:11 AM 77.0°F25.0°C 63.9°F17.7°C 64% 6.9 mph NW11.1 kmh NW 12.1 mph19.5 kmh 30.23 in1023.7 mb 0.00 in0.0 mm 0.00 in0.0 mm 0.01 in0.3 mm
11:21 AM 77.4°F25.2°C 63.9°F17.7°C 63% 6.0 mph N9.7 kmh N 12.1 mph19.5 kmh 30.23 in1023.7 mb 0.00 in0.0 mm 0.00 in0.0 mm 0.01 in0.3 mm
11:31 AM 77.5°F25.3°C 63.9°F17.7°C 63% 6.9 mph N11.1 kmh N 12.1 mph19.5 kmh 30.23 in1023.7 mb 0.00 in0.0 mm 0.00 in0.0 mm 0.01 in0.3 mm
11:41 AM 77.9°F25.5°C 63.9°F17.7°C 62% 6.9 mph WSW11.1 kmh WSW 14.1 mph22.7 kmh 30.23 in1023.7 mb 0.00 in0.0 mm 0.00 in0.0 mm 0.01 in0.3 mm
11:51 AM 77.5°F25.3°C 63.5°F17.5°C 62% 6.9 mph W11.1 kmh W 12.1 mph19.5 kmh 30.23 in1023.7 mb 0.00 in0.0 mm 0.00 in0.0 mm 0.01 in0.3 mm
12:01 PM 78.1°F25.6°C 63.5°F17.5°C 61% 6.9 mph N11.1 kmh N 11.0 mph17.7 kmh 30.23 in1023.7 mb 0.00 in0.0 mm 0.00 in0.0 mm 0.01 in0.3 mm
12:11 PM 78.6°F25.9°C 64.0°F17.8°C 61% 4.9 mph WNW7.9 kmh WNW 11.0 mph17.7 kmh 30.22 in1023.4 mb 0.00 in0.0 mm 0.00 in0.0 mm 0.01 in0.3 mm
12:21 PM 79.0°F26.1°C 63.0°F17.2°C 58% 8.1 mph NNE13.0 kmh NNE 14.1 mph22.7 kmh 30.22 in1023.4 mb 0.00 in0.0 mm 0.00 in0.0 mm 0.01 in0.3 mm
12:31 PM 79.3°F26.3°C 63.3°F17.4°C 58% 6.9 mph WNW11.1 kmh WNW 13.0 mph20.9 kmh 30.22 in1023.4 mb 0.00 in0.0 mm 0.00 in0.0 mm 0.01 in0.3 mm
12:41 PM 79.3°F26.3°C 63.3°F17.4°C 58% 8.1 mph WNW13.0 kmh WNW 14.1 mph22.7 kmh 30.22 in1023.4 mb 0.00 in0.0 mm 0.00 in0.0 mm 0.01 in0.3 mm
12:51 PM 79.7°F26.5°C 63.1°F17.3°C 57% 8.1 mph WSW13.0 kmh WSW 14.1 mph22.7 kmh 30.22 in1023.4 mb 0.00 in0.0 mm 0.00 in0.0 mm 0.01 in0.3 mm
01:01 PM 79.2°F26.2°C 62.6°F17.0°C 57% 8.9 mph N14.3 kmh N 16.1 mph25.9 kmh 30.22 in1023.4 mb 0.00 in0.0 mm 0.00 in0.0 mm 0.01 in0.3 mm
01:11 PM 79.3°F26.3°C 62.8°F17.1°C 57% 8.9 mph NNW14.3 kmh NNW 16.1 mph25.9 kmh 30.22 in1023.4 mb 0.00 in0.0 mm 0.00 in0.0 mm 0.01 in0.3 mm
01:21 PM 79.2°F26.2°C 62.1°F16.7°C 56% 10.1 mph WNW16.3 kmh WNW 16.1 mph25.9 kmh 30.22 in1023.4 mb 0.00 in0.0 mm 0.00 in0.0 mm 0.01 in0.3 mm
01:31 PM 78.6°F25.9°C 61.5°F16.4°C 56% 11.0 mph NW17.7 kmh NW 17.0 mph27.4 kmh 30.22 in1023.4 mb 0.00 in0.0 mm 0.00 in0.0 mm 0.01 in0.3 mm
01:41 PM 79.0°F26.1°C 61.5°F16.4°C 55% 11.0 mph NW17.7 kmh NW 19.0 mph30.6 kmh 30.21 in1023.0 mb 0.00 in0.0 mm 0.00 in0.0 mm 0.01 in0.3 mm
01:51 PM 79.0°F26.1°C 61.0°F16.1°C 54% 11.0 mph N17.7 kmh N 17.9 mph28.8 kmh 30.21 in1023.0 mb 0.00 in0.0 mm 0.00 in0.0 mm 0.01 in0.3 mm
02:01 PM 78.3°F25.7°C 61.3°F16.3°C 56% 11.0 mph N17.7 kmh N 17.9 mph28.8 kmh 30.21 in1023.0 mb 0.00 in0.0 mm 0.00 in0.0 mm 0.01 in0.3 mm
02:11 PM 78.6°F25.9°C 61.5°F16.4°C 56% 11.0 mph NNW17.7 kmh NNW 17.0 mph27.4 kmh 30.21 in1023.0 mb 0.00 in0.0 mm 0.00 in0.0 mm 0.01 in0.3 mm
02:21 PM 78.1°F25.6°C 60.6°F15.9°C 55% 13.0 mph NNW20.9 kmh NNW 21.0 mph33.8 kmh 30.21 in1023.0 mb 0.00 in0.0 mm 0.00 in0.0 mm 0.01 in0.3 mm
02:31 PM 77.7°F25.4°C 60.8°F16.0°C 56% 14.1 mph NW22.7 kmh NW 23.0 mph37.0 kmh 30.21 in1023.0 mb 0.00 in0.0 mm 0.00 in0.0 mm 0.01 in0.3 mm
02:41 PM 77.5°F25.3°C 61.2°F16.2°C 57% 11.0 mph NW17.7 kmh NW 19.0 mph30.6 kmh 30.21 in1023.0 mb 0.00 in0.0 mm 0.00 in0.0 mm 0.01 in0.3 mm
02:51 PM 77.2°F25.1°C 60.8°F16.0°C 57% 13.0 mph NNW20.9 kmh NNW 19.9 mph32.0 kmh 30.21 in1023.0 mb 0.00 in0.0 mm 0.00 in0.0 mm 0.01 in0.3 mm
03:01 PM 77.4°F25.2°C 61.3°F16.3°C 58% 11.0 mph N17.7 kmh N 19.9 mph32.0 kmh 30.21 in1023.0 mb 0.00 in0.0 mm 0.00 in0.0 mm 0.01 in0.3 mm
03:11 PM 77.2°F25.1°C 61.7°F16.5°C 59% 11.0 mph NW17.7 kmh NW 19.9 mph32.0 kmh 30.21 in1023.0 mb 0.00 in0.0 mm 0.00 in0.0 mm 0.01 in0.3 mm
03:21 PM 76.6°F24.8°C 61.2°F16.2°C 59% 10.1 mph NNW16.3 kmh NNW 21.0 mph33.8 kmh 30.21 in1023.0 mb 0.00 in0.0 mm 0.00 in0.0 mm 0.01 in0.3 mm
03:31 PM 76.5°F24.7°C 61.0°F16.1°C 59% 13.0 mph N20.9 kmh N 21.9 mph35.2 kmh 30.21 in1023.0 mb 0.00 in0.0 mm 0.00 in0.0 mm 0.01 in0.3 mm
03:41 PM 75.9°F24.4°C 61.5°F16.4°C 61% 12.1 mph NW19.5 kmh NW 23.0 mph37.0 kmh 30.20 in1022.7 mb 0.00 in0.0 mm 0.00 in0.0 mm 0.01 in0.3 mm
03:51 PM 75.7°F24.3°C 61.9°F16.6°C 62% 11.0 mph NNW17.7 kmh NNW 21.9 mph35.2 kmh 30.21 in1023.0 mb 0.00 in0.0 mm 0.00 in0.0 mm 0.01 in0.3 mm
04:01 PM 75.4°F24.1°C 61.5°F16.4°C 62% 11.0 mph NW17.7 kmh NW 19.0 mph30.6 kmh 30.20 in1022.7 mb 0.00 in0.0 mm 0.00 in0.0 mm 0.01 in0.3 mm
04:11 PM 74.8°F23.8°C 61.3°F16.3°C 63% 11.0 mph NW17.7 kmh NW 19.0 mph30.6 kmh 30.20 in1022.7 mb 0.00 in0.0 mm 0.00 in0.0 mm 0.01 in0.3 mm
04:21 PM 75.4°F24.1°C 61.5°F16.4°C 62% 11.0 mph NW17.7 kmh NW 21.0 mph33.8 kmh 30.20 in1022.7 mb 0.00 in0.0 mm 0.00 in0.0 mm 0.01 in0.3 mm
04:31 PM 74.7°F23.7°C 61.7°F16.5°C 64% 12.1 mph NNE19.5 kmh NNE 21.0 mph33.8 kmh 30.20 in1022.7 mb 0.00 in0.0 mm 0.00 in0.0 mm 0.01 in0.3 mm
04:41 PM 73.9°F23.3°C 61.0°F16.1°C 64% 12.1 mph NNW19.5 kmh NNW 21.0 mph33.8 kmh 30.20 in1022.7 mb 0.00 in0.0 mm 0.00 in0.0 mm 0.01 in0.3 mm
04:51 PM 73.6°F23.1°C 61.2°F16.2°C 65% 11.0 mph NW17.7 kmh NW 23.9 mph38.5 kmh 30.20 in1022.7 mb 0.00 in0.0 mm 0.00 in0.0 mm 0.01 in0.3 mm
05:01 PM 72.9°F22.7°C 61.3°F16.3°C 67% 12.1 mph NNW19.5 kmh NNW 21.9 mph35.2 kmh 30.20 in1022.7 mb 0.00 in0.0 mm 0.00 in0.0 mm 0.01 in0.3 mm
05:11 PM 73.2°F22.9°C 61.2°F16.2°C 66% 8.9 mph WNW14.3 kmh WNW 17.0 mph27.4 kmh 30.20 in1022.7 mb 0.00 in0.0 mm 0.00 in0.0 mm 0.01 in0.3 mm
05:21 PM 72.9°F22.7°C 61.3°F16.3°C 67% 10.1 mph NW16.3 kmh NW 17.9 mph28.8 kmh 30.21 in1023.0 mb 0.00 in0.0 mm 0.00 in0.0 mm 0.01 in0.3 mm
05:31 PM 72.1°F22.3°C 61.3°F16.3°C 69% 12.1 mph NW19.5 kmh NW 19.9 mph32.0 kmh 30.21 in1023.0 mb 0.00 in0.0 mm 0.00 in0.0 mm 0.01 in0.3 mm
05:41 PM 71.4°F21.9°C 61.2°F16.2°C 70% 12.1 mph NW19.5 kmh NW 19.9 mph32.0 kmh 30.21 in1023.0 mb 0.00 in0.0 mm 0.00 in0.0 mm 0.01 in0.3 mm
05:51 PM 70.9°F21.6°C 61.3°F16.3°C 72% 11.0 mph NW17.7 kmh NW 23.0 mph37.0 kmh 30.21 in1023.0 mb 0.00 in0.0 mm 0.00 in0.0 mm 0.01 in0.3 mm
06:01 PM 70.2°F21.2°C 61.2°F16.2°C 73% 10.1 mph NNW16.3 kmh NNW 17.0 mph27.4 kmh 30.21 in1023.0 mb 0.00 in0.0 mm 0.00 in0.0 mm 0.01 in0.3 mm
06:11 PM 69.3°F20.7°C 61.3°F16.3°C 76% 10.1 mph NW16.3 kmh NW 21.0 mph33.8 kmh 30.21 in1023.0 mb 0.00 in0.0 mm 0.00 in0.0 mm 0.01 in0.3 mm
06:21 PM 68.4°F20.2°C 60.8°F16.0°C 77% 10.1 mph NNW16.3 kmh NNW 21.9 mph35.2 kmh 30.22 in1023.4 mb 0.00 in0.0 mm 0.00 in0.0 mm 0.01 in0.3 mm
06:31 PM 67.8°F19.9°C 60.6°F15.9°C 78% 10.1 mph NW16.3 kmh NW 17.9 mph28.8 kmh 30.22 in1023.4 mb 0.00 in0.0 mm 0.00 in0.0 mm 0.01 in0.3 mm
06:41 PM 67.5°F19.7°C 61.2°F16.2°C 80% 8.1 mph NW13.0 kmh NW 17.0 mph27.4 kmh 30.22 in1023.4 mb 0.00 in0.0 mm 0.00 in0.0 mm 0.01 in0.3 mm
06:51 PM 66.9°F19.4°C 61.0°F16.1°C 81% 8.9 mph NW14.3 kmh NW 16.1 mph25.9 kmh 30.22 in1023.4 mb 0.00 in0.0 mm 0.00 in0.0 mm 0.01 in0.3 mm
07:01 PM 66.6°F19.2°C 61.0°F16.1°C 82% 6.9 mph NW11.1 kmh NW 13.0 mph20.9 kmh 30.22 in1023.4 mb 0.00 in0.0 mm 0.00 in0.0 mm 0.01 in0.3 mm
07:11 PM 66.2°F19.0°C 60.6°F15.9°C 82% 6.9 mph NNW11.1 kmh NNW 13.0 mph20.9 kmh 30.23 in1023.7 mb 0.00 in0.0 mm 0.00 in0.0 mm 0.01 in0.3 mm
07:21 PM 65.8°F18.8°C 60.8°F16.0°C 84% 6.0 mph N9.7 kmh N 11.0 mph17.7 kmh 30.23 in1023.7 mb 0.00 in0.0 mm 0.00 in0.0 mm 0.01 in0.3 mm
07:31 PM 65.7°F18.7°C 60.6°F15.9°C 84% 4.0 mph NNW6.4 kmh NNW 8.9 mph14.3 kmh 30.23 in1023.7 mb 0.00 in0.0 mm 0.00 in0.0 mm 0.01 in0.3 mm
07:41 PM 65.3°F18.5°C 60.6°F15.9°C 85% 4.9 mph NW7.9 kmh NW 8.9 mph14.3 kmh 30.24 in1024.0 mb 0.00 in0.0 mm 0.00 in0.0 mm 0.01 in0.3 mm
07:51 PM 64.9°F18.3°C 60.3°F15.7°C 85% 4.0 mph NW6.4 kmh NW 8.1 mph13.0 kmh 30.24 in1024.0 mb 0.00 in0.0 mm 0.00 in0.0 mm 0.01 in0.3 mm
08:01 PM 64.8°F18.2°C 60.4°F15.8°C 86% 4.0 mph NNW6.4 kmh NNW 8.1 mph13.0 kmh 30.24 in1024.0 mb 0.00 in0.0 mm 0.00 in0.0 mm 0.01 in0.3 mm
08:11 PM 64.4°F18.0°C 60.1°F15.6°C 86% 4.9 mph NW7.9 kmh NW 8.9 mph14.3 kmh 30.24 in1024.0 mb 0.00 in0.0 mm 0.00 in0.0 mm 0.01 in0.3 mm
08:21 PM 64.2°F17.9°C 60.3°F15.7°C 87% 2.9 mph NW4.7 kmh NW 8.1 mph13.0 kmh 30.24 in1024.0 mb 0.00 in0.0 mm 0.00 in0.0 mm 0.01 in0.3 mm
08:31 PM 64.0°F17.8°C 60.1°F15.6°C 87% 2.0 mph NNW3.2 kmh NNW 6.0 mph9.7 kmh 30.25 in1024.4 mb 0.00 in0.0 mm 0.00 in0.0 mm 0.01 in0.3 mm
08:42 PM 63.5°F17.5°C 59.9°F15.5°C 88% 2.0 mph WNW3.2 kmh WNW 4.9 mph7.9 kmh 30.25 in1024.4 mb 0.00 in0.0 mm 0.00 in0.0 mm 0.01 in0.3 mm
08:52 PM 63.1°F17.3°C 59.9°F15.5°C 89% 2.9 mph WNW4.7 kmh WNW 4.9 mph7.9 kmh 30.25 in1024.4 mb 0.00 in0.0 mm 0.00 in0.0 mm 0.01 in0.3 mm
09:02 PM 62.8°F17.1°C 59.5°F15.3°C 89% 2.0 mph WNW3.2 kmh WNW 4.0 mph6.4 kmh 30.25 in1024.4 mb 0.00 in0.0 mm 0.00 in0.0 mm 0.01 in0.3 mm
09:12 PM 62.4°F16.9°C 59.4°F15.2°C 90% 2.0 mph NW3.2 kmh NW 4.9 mph7.9 kmh 30.25 in1024.4 mb 0.00 in0.0 mm 0.00 in0.0 mm 0.01 in0.3 mm
09:22 PM 61.9°F16.6°C 59.0°F15.0°C 90% 0.9 mph NW1.4 kmh NW 2.0 mph3.2 kmh 30.25 in1024.4 mb 0.00 in0.0 mm 0.00 in0.0 mm 0.01 in0.3 mm
09:32 PM 61.3°F16.3°C 58.5°F14.7°C 90% Calm Calm -- 30.25 in1024.4 mb 0.00 in0.0 mm 0.00 in0.0 mm 0.01 in0.3 mm
09:42 PM 61.0°F16.1°C 58.3°F14.6°C 91% Calm Calm 0.9 mph1.4 kmh 30.25 in1024.4 mb 0.00 in0.0 mm 0.00 in0.0 mm 0.01 in0.3 mm
09:52 PM 61.0°F16.1°C 58.6°F14.8°C 92% Calm Calm 2.0 mph3.2 kmh 30.25 in1024.4 mb 0.00 in0.0 mm 0.00 in0.0 mm 0.01 in0.3 mm
10:02 PM 62.1°F16.7°C 60.1°F15.6°C 93% 0.9 mph NW1.4 kmh NW 4.0 mph6.4 kmh 30.25 in1024.4 mb 0.00 in0.0 mm 0.00 in0.0 mm 0.01 in0.3 mm
10:12 PM 63.0°F17.2°C 61.0°F16.1°C 93% 2.9 mph NW4.7 kmh NW 6.0 mph9.7 kmh 30.24 in1024.0 mb 0.00 in0.0 mm 0.00 in0.0 mm 0.01 in0.3 mm
10:22 PM 63.1°F17.3°C 61.2°F16.2°C 93% 2.0 mph N3.2 kmh N 4.0 mph6.4 kmh 30.24 in1024.0 mb 0.00 in0.0 mm 0.00 in0.0 mm 0.01 in0.3 mm
10:32 PM 63.3°F17.4°C 61.3°F16.3°C 93% 2.9 mph N4.7 kmh N 4.9 mph7.9 kmh 30.24 in1024.0 mb 0.00 in0.0 mm 0.00 in0.0 mm 0.01 in0.3 mm
10:42 PM 63.5°F17.5°C 61.5°F16.4°C 93% 2.0 mph NNW3.2 kmh NNW 6.0 mph9.7 kmh 30.24 in1024.0 mb 0.00 in0.0 mm 0.00 in0.0 mm 0.01 in0.3 mm
10:52 PM 63.7°F17.6°C 61.3°F16.3°C 92% 2.0 mph NW3.2 kmh NW 4.0 mph6.4 kmh 30.24 in1024.0 mb 0.00 in0.0 mm 0.00 in0.0 mm 0.01 in0.3 mm
11:03 PM 63.9°F17.7°C 61.5°F16.4°C 92% 2.9 mph NW4.7 kmh NW 8.1 mph13.0 kmh 30.24 in1024.0 mb 0.00 in0.0 mm 0.00 in0.0 mm 0.01 in0.3 mm
11:13 PM 63.7°F17.6°C 61.3°F16.3°C 92% 4.0 mph N6.4 kmh N 8.9 mph14.3 kmh 30.24 in1024.0 mb 0.00 in0.0 mm 0.00 in0.0 mm 0.01 in0.3 mm
11:23 PM 63.1°F17.3°C 60.8°F16.0°C 92% 2.0 mph NW3.2 kmh NW 6.0 mph9.7 kmh 30.25 in1024.4 mb 0.00 in0.0 mm 0.00 in0.0 mm 0.01 in0.3 mm
11:33 PM 63.0°F17.2°C 60.6°F15.9°C 92% 2.9 mph NW4.7 kmh NW 6.9 mph11.1 kmh 30.25 in1024.4 mb 0.00 in0.0 mm 0.00 in0.0 mm 0.01 in0.3 mm
11:43 PM 62.8°F17.1°C 60.4°F15.8°C 92% 2.9 mph WNW4.7 kmh WNW 6.9 mph11.1 kmh 30.25 in1024.4 mb 0.00 in0.0 mm 0.00 in0.0 mm 0.01 in0.3 mm
11:53 PM 62.8°F17.1°C 60.8°F16.0°C 93% 2.9 mph NW4.7 kmh NW 8.1 mph13.0 kmh 30.25 in1024.4 mb 0.00 in0.0 mm 0.00 in0.0 mm 0.01 in0.3 mm